sensor_id;sensor_type;location;lat;lon;timestamp;P1;durP1;ratioP1;P2;durP2;ratioP2
37943;SDS011;23767;42.024;23.086;2022-08-03T00:01:57;2.70;;;1.08;;
37943;SDS011;23767;42.024;23.086;2022-08-03T00:04:23;1.70;;;1.00;;
37943;SDS011;23767;42.024;23.086;2022-08-03T00:06:49;3.35;;;1.10;;
37943;SDS011;23767;42.024;23.086;2022-08-03T00:09:15;2.20;;;1.10;;
37943;SDS011;23767;42.024;23.086;2022-08-03T00:11:41;1.73;;;1.10;;
37943;SDS011;23767;42.024;23.086;2022-08-03T00:14:07;2.17;;;1.30;;
37943;SDS011;23767;42.024;23.086;2022-08-03T00:16:34;2.17;;;1.02;;
37943;SDS011;23767;42.024;23.086;2022-08-03T00:19:00;3.00;;;1.05;;
37943;SDS011;23767;42.024;23.086;2022-08-03T00:21:27;1.70;;;1.00;;
37943;SDS011;23767;42.024;23.086;2022-08-03T00:23:53;1.98;;;0.95;;
37943;SDS011;23767;42.024;23.086;2022-08-03T00:26:19;2.05;;;1.05;;
37943;SDS011;23767;42.024;23.086;2022-08-03T00:28:45;2.97;;;1.23;;
37943;SDS011;23767;42.024;23.086;2022-08-03T00:31:12;1.75;;;1.00;;
37943;SDS011;23767;42.024;23.086;2022-08-03T00:33:38;2.17;;;1.10;;
37943;SDS011;23767;42.024;23.086;2022-08-03T00:36:04;2.40;;;1.20;;
37943;SDS011;23767;42.024;23.086;2022-08-03T00:38:30;2.78;;;1.20;;
37943;SDS011;23767;42.024;23.086;2022-08-03T00:40:56;3.05;;;1.50;;
37943;SDS011;23767;42.024;23.086;2022-08-03T00:43:24;3.20;;;1.08;;
37943;SDS011;23767;42.024;23.086;2022-08-03T00:45:51;1.77;;;1.00;;
37943;SDS011;23767;42.024;23.086;2022-08-03T00:48:18;1.55;;;0.95;;
37943;SDS011;23767;42.024;23.086;2022-08-03T00:50:44;2.78;;;1.30;;
37943;SDS011;23767;42.024;23.086;2022-08-03T00:53:12;1.95;;;1.20;;
37943;SDS011;23767;42.024;23.086;2022-08-03T00:55:41;2.70;;;1.20;;
37943;SDS011;23767;42.024;23.086;2022-08-03T00:58:08;4.20;;;1.25;;
37943;SDS011;23767;42.024;23.086;2022-08-03T01:00:36;3.90;;;1.30;;
37943;SDS011;23767;42.024;23.086;2022-08-03T01:03:06;5.40;;;1.30;;
37943;SDS011;23767;42.024;23.086;2022-08-03T01:05:33;1.90;;;1.13;;
37943;SDS011;23767;42.024;23.086;2022-08-03T01:10:48;4.60;;;1.40;;
37943;SDS011;23767;42.024;23.086;2022-08-03T01:13:33;4.57;;;1.40;;
37943;SDS011;23767;42.024;23.086;2022-08-03T01:21:24;2.83;;;1.25;;
37943;SDS011;23767;42.024;23.086;2022-08-03T01:31:36;3.92;;;1.30;;
37943;SDS011;23767;42.024;23.086;2022-08-03T01:34:04;2.83;;;1.20;;
37943;SDS011;23767;42.024;23.086;2022-08-03T01:36:32;2.58;;;1.20;;
37943;SDS011;23767;42.024;23.086;2022-08-03T01:39:00;2.35;;;1.08;;
37943;SDS011;23767;42.024;23.086;2022-08-03T01:41:32;2.28;;;1.38;;
37943;SDS011;23767;42.024;23.086;2022-08-03T01:43:58;3.13;;;1.30;;
37943;SDS011;23767;42.024;23.086;2022-08-03T01:46:25;1.73;;;1.10;;
37943;SDS011;23767;42.024;23.086;2022-08-03T01:48:52;4.35;;;1.17;;
37943;SDS011;23767;42.024;23.086;2022-08-03T01:51:19;3.58;;;1.10;;
37943;SDS011;23767;42.024;23.086;2022-08-03T01:53:47;2.38;;;1.33;;
37943;SDS011;23767;42.024;23.086;2022-08-03T01:56:15;1.83;;;1.20;;
37943;SDS011;23767;42.024;23.086;2022-08-03T01:58:41;1.77;;;1.10;;
37943;SDS011;23767;42.024;23.086;2022-08-03T02:01:09;3.95;;;1.30;;
37943;SDS011;23767;42.024;23.086;2022-08-03T02:03:36;3.25;;;1.20;;
37943;SDS011;23767;42.024;23.086;2022-08-03T02:06:03;3.25;;;1.30;;
37943;SDS011;23767;42.024;23.086;2022-08-03T02:08:30;3.22;;;1.63;;
37943;SDS011;23767;42.024;23.086;2022-08-03T02:10:57;2.47;;;1.35;;
37943;SDS011;23767;42.024;23.086;2022-08-03T02:13:23;2.13;;;1.08;;
37943;SDS011;23767;42.024;23.086;2022-08-03T02:15:51;2.75;;;1.30;;
37943;SDS011;23767;42.024;23.086;2022-08-03T02:18:17;2.83;;;1.30;;
37943;SDS011;23767;42.024;23.086;2022-08-03T02:20:44;2.35;;;1.15;;
37943;SDS011;23767;42.024;23.086;2022-08-03T02:23:11;3.67;;;1.20;;
37943;SDS011;23767;42.024;23.086;2022-08-03T02:25:43;2.47;;;1.20;;
37943;SDS011;23767;42.024;23.086;2022-08-03T02:28:12;3.10;;;1.10;;
37943;SDS011;23767;42.024;23.086;2022-08-03T02:30:41;3.20;;;1.42;;
37943;SDS011;23767;42.024;23.086;2022-08-03T02:33:10;4.97;;;1.30;;
37943;SDS011;23767;42.024;23.086;2022-08-03T02:35:37;2.20;;;1.10;;
37943;SDS011;23767;42.024;23.086;2022-08-03T02:38:04;3.28;;;1.30;;
37943;SDS011;23767;42.024;23.086;2022-08-03T02:40:31;2.80;;;1.35;;
37943;SDS011;23767;42.024;23.086;2022-08-03T02:42:58;5.05;;;1.80;;
37943;SDS011;23767;42.024;23.086;2022-08-03T02:45:25;3.30;;;1.23;;
37943;SDS011;23767;42.024;23.086;2022-08-03T02:47:54;7.70;;;1.73;;
37943;SDS011;23767;42.024;23.086;2022-08-03T02:50:22;2.55;;;1.40;;
37943;SDS011;23767;42.024;23.086;2022-08-03T02:52:49;3.47;;;1.20;;
37943;SDS011;23767;42.024;23.086;2022-08-03T02:55:16;3.25;;;1.55;;
37943;SDS011;23767;42.024;23.086;2022-08-03T02:57:42;3.08;;;1.40;;
37943;SDS011;23767;42.024;23.086;2022-08-03T03:00:09;4.03;;;1.20;;
37943;SDS011;23767;42.024;23.086;2022-08-03T03:02:36;2.85;;;1.27;;
37943;SDS011;23767;42.024;23.086;2022-08-03T03:05:02;3.35;;;1.42;;
37943;SDS011;23767;42.024;23.086;2022-08-03T03:07:29;3.45;;;1.60;;
37943;SDS011;23767;42.024;23.086;2022-08-03T03:09:56;3.67;;;1.60;;
37943;SDS011;23767;42.024;23.086;2022-08-03T03:12:22;3.10;;;1.48;;
37943;SDS011;23767;42.024;23.086;2022-08-03T03:14:49;3.47;;;1.50;;
37943;SDS011;23767;42.024;23.086;2022-08-03T03:17:15;4.03;;;1.70;;
37943;SDS011;23767;42.024;23.086;2022-08-03T03:19:42;5.70;;;1.90;;
37943;SDS011;23767;42.024;23.086;2022-08-03T03:22:09;7.38;;;1.83;;
37943;SDS011;23767;42.024;23.086;2022-08-03T03:24:35;3.88;;;2.05;;
37943;SDS011;23767;42.024;23.086;2022-08-03T03:27:02;5.45;;;1.90;;
37943;SDS011;23767;42.024;23.086;2022-08-03T03:29:28;3.40;;;1.60;;
37943;SDS011;23767;42.024;23.086;2022-08-03T03:31:55;5.22;;;1.48;;
37943;SDS011;23767;42.024;23.086;2022-08-03T03:34:21;4.32;;;1.70;;
37943;SDS011;23767;42.024;23.086;2022-08-03T03:36:47;4.45;;;1.83;;
37943;SDS011;23767;42.024;23.086;2022-08-03T03:39:13;5.05;;;2.00;;
37943;SDS011;23767;42.024;23.086;2022-08-03T03:41:39;5.43;;;1.90;;
37943;SDS011;23767;42.024;23.086;2022-08-03T03:44:06;4.60;;;1.55;;
37943;SDS011;23767;42.024;23.086;2022-08-03T03:46:32;6.90;;;1.92;;
37943;SDS011;23767;42.024;23.086;2022-08-03T03:48:58;6.50;;;2.05;;
37943;SDS011;23767;42.024;23.086;2022-08-03T03:51:24;4.03;;;1.60;;
37943;SDS011;23767;42.024;23.086;2022-08-03T03:53:54;7.07;;;2.10;;
37943;SDS011;23767;42.024;23.086;2022-08-03T03:56:20;4.45;;;1.70;;
37943;SDS011;23767;42.024;23.086;2022-08-03T03:58:46;7.25;;;2.00;;
37943;SDS011;23767;42.024;23.086;2022-08-03T04:01:12;5.43;;;1.85;;
37943;SDS011;23767;42.024;23.086;2022-08-03T04:03:38;4.07;;;1.70;;
37943;SDS011;23767;42.024;23.086;2022-08-03T04:06:04;2.25;;;1.17;;
37943;SDS011;23767;42.024;23.086;2022-08-03T04:08:49;3.22;;;1.40;;
37943;SDS011;23767;42.024;23.086;2022-08-03T04:11:35;3.45;;;1.40;;
37943;SDS011;23767;42.024;23.086;2022-08-03T04:14:17;4.25;;;1.70;;
37943;SDS011;23767;42.024;23.086;2022-08-03T04:16:45;4.10;;;1.75;;
37943;SDS011;23767;42.024;23.086;2022-08-03T04:19:33;4.60;;;1.33;;
37943;SDS011;23767;42.024;23.086;2022-08-03T04:22:04;3.85;;;1.60;;
37943;SDS011;23767;42.024;23.086;2022-08-03T04:24:33;6.50;;;1.58;;
37943;SDS011;23767;42.024;23.086;2022-08-03T04:27:01;4.40;;;2.00;;
37943;SDS011;23767;42.024;23.086;2022-08-03T04:29:28;6.90;;;1.83;;
37943;SDS011;23767;42.024;23.086;2022-08-03T04:31:54;7.55;;;2.30;;
37943;SDS011;23767;42.024;23.086;2022-08-03T04:34:22;5.25;;;2.00;;
37943;SDS011;23767;42.024;23.086;2022-08-03T04:36:48;4.90;;;1.67;;
37943;SDS011;23767;42.024;23.086;2022-08-03T04:39:23;4.75;;;1.73;;
37943;SDS011;23767;42.024;23.086;2022-08-03T04:41:52;4.35;;;1.80;;
37943;SDS011;23767;42.024;23.086;2022-08-03T04:44:19;5.65;;;1.73;;
37943;SDS011;23767;42.024;23.086;2022-08-03T04:46:46;3.78;;;1.77;;
37943;SDS011;23767;42.024;23.086;2022-08-03T04:49:12;4.03;;;1.63;;
37943;SDS011;23767;42.024;23.086;2022-08-03T04:51:38;3.20;;;1.50;;
37943;SDS011;23767;42.024;23.086;2022-08-03T04:54:06;3.28;;;1.55;;
37943;SDS011;23767;42.024;23.086;2022-08-03T04:56:38;4.07;;;2.00;;
37943;SDS011;23767;42.024;23.086;2022-08-03T04:59:04;5.38;;;2.10;;
37943;SDS011;23767;42.024;23.086;2022-08-03T05:01:30;4.53;;;2.28;;
37943;SDS011;23767;42.024;23.086;2022-08-03T05:03:56;5.03;;;2.20;;
37943;SDS011;23767;42.024;23.086;2022-08-03T05:06:22;8.10;;;2.22;;
37943;SDS011;23767;42.024;23.086;2022-08-03T05:08:48;6.25;;;2.13;;
37943;SDS011;23767;42.024;23.086;2022-08-03T05:11:15;8.20;;;2.35;;
37943;SDS011;23767;42.024;23.086;2022-08-03T05:13:41;7.30;;;2.20;;
37943;SDS011;23767;42.024;23.086;2022-08-03T05:16:07;3.97;;;1.70;;
37943;SDS011;23767;42.024;23.086;2022-08-03T05:18:33;8.48;;;2.53;;
37943;SDS011;23767;42.024;23.086;2022-08-03T05:21:00;5.90;;;2.40;;
37943;SDS011;23767;42.024;23.086;2022-08-03T05:23:26;8.45;;;3.10;;
37943;SDS011;23767;42.024;23.086;2022-08-03T05:25:52;5.47;;;2.10;;
37943;SDS011;23767;42.024;23.086;2022-08-03T05:28:18;5.80;;;2.30;;
37943;SDS011;23767;42.024;23.086;2022-08-03T05:30:44;8.25;;;2.30;;
37943;SDS011;23767;42.024;23.086;2022-08-03T05:33:10;3.92;;;1.90;;
37943;SDS011;23767;42.024;23.086;2022-08-03T05:35:36;5.10;;;1.90;;
37943;SDS011;23767;42.024;23.086;2022-08-03T05:38:03;8.35;;;2.58;;
37943;SDS011;23767;42.024;23.086;2022-08-03T05:40:29;8.43;;;2.40;;
37943;SDS011;23767;42.024;23.086;2022-08-03T05:42:56;11.70;;;2.80;;
37943;SDS011;23767;42.024;23.086;2022-08-03T05:45:22;4.75;;;2.00;;
37943;SDS011;23767;42.024;23.086;2022-08-03T05:47:48;5.45;;;2.55;;
37943;SDS011;23767;42.024;23.086;2022-08-03T05:50:15;7.35;;;1.92;;
37943;SDS011;23767;42.024;23.086;2022-08-03T05:52:41;5.72;;;2.40;;
37943;SDS011;23767;42.024;23.086;2022-08-03T05:55:08;5.80;;;2.10;;
37943;SDS011;23767;42.024;23.086;2022-08-03T05:57:34;3.97;;;1.90;;
37943;SDS011;23767;42.024;23.086;2022-08-03T06:00:01;5.32;;;1.90;;
37943;SDS011;23767;42.024;23.086;2022-08-03T06:02:27;4.68;;;1.77;;
37943;SDS011;23767;42.024;23.086;2022-08-03T06:04:54;5.70;;;2.00;;
37943;SDS011;23767;42.024;23.086;2022-08-03T06:07:20;7.65;;;2.38;;
37943;SDS011;23767;42.024;23.086;2022-08-03T06:09:46;7.57;;;1.92;;
37943;SDS011;23767;42.024;23.086;2022-08-03T06:12:12;4.00;;;1.77;;
37943;SDS011;23767;42.024;23.086;2022-08-03T06:14:38;6.35;;;2.00;;
37943;SDS011;23767;42.024;23.086;2022-08-03T06:17:04;7.75;;;1.70;;
37943;SDS011;23767;42.024;23.086;2022-08-03T06:19:30;6.32;;;2.05;;
37943;SDS011;23767;42.024;23.086;2022-08-03T06:21:56;4.28;;;1.83;;
37943;SDS011;23767;42.024;23.086;2022-08-03T06:24:22;4.97;;;1.92;;
37943;SDS011;23767;42.024;23.086;2022-08-03T06:26:48;4.90;;;2.30;;
37943;SDS011;23767;42.024;23.086;2022-08-03T06:29:15;6.18;;;2.50;;
37943;SDS011;23767;42.024;23.086;2022-08-03T06:31:41;6.85;;;2.65;;
37943;SDS011;23767;42.024;23.086;2022-08-03T06:34:07;13.57;;;2.55;;
37943;SDS011;23767;42.024;23.086;2022-08-03T06:36:33;7.30;;;2.65;;
37943;SDS011;23767;42.024;23.086;2022-08-03T06:38:59;10.00;;;2.65;;
37943;SDS011;23767;42.024;23.086;2022-08-03T06:41:26;8.57;;;2.42;;
37943;SDS011;23767;42.024;23.086;2022-08-03T06:43:52;6.07;;;2.33;;
37943;SDS011;23767;42.024;23.086;2022-08-03T06:46:18;9.70;;;2.85;;
37943;SDS011;23767;42.024;23.086;2022-08-03T06:48:45;7.20;;;2.15;;
37943;SDS011;23767;42.024;23.086;2022-08-03T06:51:11;6.95;;;2.83;;
37943;SDS011;23767;42.024;23.086;2022-08-03T06:53:37;5.95;;;2.17;;
37943;SDS011;23767;42.024;23.086;2022-08-03T06:56:04;4.88;;;2.08;;
37943;SDS011;23767;42.024;23.086;2022-08-03T06:58:30;4.60;;;2.35;;
37943;SDS011;23767;42.024;23.086;2022-08-03T07:00:56;9.85;;;2.10;;
37943;SDS011;23767;42.024;23.086;2022-08-03T07:03:22;13.02;;;2.70;;
37943;SDS011;23767;42.024;23.086;2022-08-03T07:05:48;7.10;;;2.42;;
37943;SDS011;23767;42.024;23.086;2022-08-03T07:08:15;8.23;;;2.38;;
37943;SDS011;23767;42.024;23.086;2022-08-03T07:10:41;12.57;;;2.53;;
37943;SDS011;23767;42.024;23.086;2022-08-03T07:13:07;8.02;;;2.47;;
37943;SDS011;23767;42.024;23.086;2022-08-03T07:15:33;6.97;;;2.30;;
37943;SDS011;23767;42.024;23.086;2022-08-03T07:17:59;7.68;;;2.22;;
37943;SDS011;23767;42.024;23.086;2022-08-03T07:20:25;5.43;;;2.22;;
37943;SDS011;23767;42.024;23.086;2022-08-03T07:22:51;5.40;;;2.45;;
37943;SDS011;23767;42.024;23.086;2022-08-03T07:25:18;9.05;;;2.78;;
37943;SDS011;23767;42.024;23.086;2022-08-03T07:27:44;7.60;;;2.65;;
37943;SDS011;23767;42.024;23.086;2022-08-03T07:30:10;5.88;;;2.45;;
37943;SDS011;23767;42.024;23.086;2022-08-03T07:32:37;6.38;;;2.40;;
37943;SDS011;23767;42.024;23.086;2022-08-03T07:35:03;9.90;;;3.47;;
37943;SDS011;23767;42.024;23.086;2022-08-03T07:37:30;9.15;;;3.40;;
37943;SDS011;23767;42.024;23.086;2022-08-03T07:39:57;11.82;;;3.58;;
37943;SDS011;23767;42.024;23.086;2022-08-03T07:42:23;6.18;;;2.67;;
37943;SDS011;23767;42.024;23.086;2022-08-03T07:44:49;9.32;;;3.33;;
37943;SDS011;23767;42.024;23.086;2022-08-03T07:47:19;10.68;;;2.95;;
37943;SDS011;23767;42.024;23.086;2022-08-03T07:49:47;13.32;;;3.25;;
37943;SDS011;23767;42.024;23.086;2022-08-03T07:52:13;9.98;;;3.05;;
37943;SDS011;23767;42.024;23.086;2022-08-03T07:54:58;8.73;;;2.15;;
37943;SDS011;23767;42.024;23.086;2022-08-03T07:57:24;9.45;;;2.50;;
37943;SDS011;23767;42.024;23.086;2022-08-03T07:59:51;10.10;;;3.10;;
37943;SDS011;23767;42.024;23.086;2022-08-03T08:02:17;8.38;;;2.75;;
37943;SDS011;23767;42.024;23.086;2022-08-03T08:04:43;9.73;;;2.90;;
37943;SDS011;23767;42.024;23.086;2022-08-03T08:07:09;8.25;;;2.60;;
37943;SDS011;23767;42.024;23.086;2022-08-03T08:09:35;8.43;;;3.08;;
37943;SDS011;23767;42.024;23.086;2022-08-03T08:12:02;9.07;;;2.83;;
37943;SDS011;23767;42.024;23.086;2022-08-03T08:14:28;7.38;;;2.90;;
37943;SDS011;23767;42.024;23.086;2022-08-03T08:16:54;9.48;;;2.63;;
37943;SDS011;23767;42.024;23.086;2022-08-03T08:19:20;9.93;;;2.67;;
37943;SDS011;23767;42.024;23.086;2022-08-03T08:21:46;6.95;;;2.70;;
37943;SDS011;23767;42.024;23.086;2022-08-03T08:24:12;6.22;;;2.40;;
37943;SDS011;23767;42.024;23.086;2022-08-03T08:26:38;6.70;;;2.30;;
37943;SDS011;23767;42.024;23.086;2022-08-03T08:29:04;6.35;;;2.28;;
37943;SDS011;23767;42.024;23.086;2022-08-03T08:31:31;7.78;;;2.40;;
37943;SDS011;23767;42.024;23.086;2022-08-03T08:33:57;7.25;;;2.28;;
37943;SDS011;23767;42.024;23.086;2022-08-03T08:36:23;5.15;;;2.10;;
37943;SDS011;23767;42.024;23.086;2022-08-03T08:38:49;6.93;;;2.30;;
37943;SDS011;23767;42.024;23.086;2022-08-03T08:41:15;4.90;;;2.00;;
37943;SDS011;23767;42.024;23.086;2022-08-03T08:43:41;5.20;;;2.33;;
37943;SDS011;23767;42.024;23.086;2022-08-03T08:46:11;6.15;;;2.08;;
37943;SDS011;23767;42.024;23.086;2022-08-03T08:48:41;4.97;;;2.30;;
37943;SDS011;23767;42.024;23.086;2022-08-03T08:51:08;4.65;;;1.73;;
37943;SDS011;23767;42.024;23.086;2022-08-03T08:53:36;3.85;;;1.67;;
37943;SDS011;23767;42.024;23.086;2022-08-03T08:56:04;5.53;;;1.98;;
37943;SDS011;23767;42.024;23.086;2022-08-03T08:58:33;4.93;;;1.88;;
37943;SDS011;23767;42.024;23.086;2022-08-03T09:01:01;5.63;;;1.92;;
37943;SDS011;23767;42.024;23.086;2022-08-03T09:03:28;5.13;;;1.80;;
37943;SDS011;23767;42.024;23.086;2022-08-03T09:05:54;7.53;;;2.00;;
37943;SDS011;23767;42.024;23.086;2022-08-03T09:08:20;6.10;;;1.95;;
37943;SDS011;23767;42.024;23.086;2022-08-03T09:10:47;3.80;;;1.60;;
37943;SDS011;23767;42.024;23.086;2022-08-03T09:13:13;4.15;;;1.80;;
37943;SDS011;23767;42.024;23.086;2022-08-03T09:15:39;5.85;;;2.00;;
37943;SDS011;23767;42.024;23.086;2022-08-03T09:18:06;6.15;;;2.25;;
37943;SDS011;23767;42.024;23.086;2022-08-03T09:20:33;3.97;;;1.70;;
37943;SDS011;23767;42.024;23.086;2022-08-03T09:23:02;5.20;;;2.00;;
37943;SDS011;23767;42.024;23.086;2022-08-03T09:27:55;5.22;;;1.80;;
37943;SDS011;23767;42.024;23.086;2022-08-03T09:30:28;5.47;;;1.83;;
37943;SDS011;23767;42.024;23.086;2022-08-03T09:32:58;6.47;;;1.80;;
37943;SDS011;23767;42.024;23.086;2022-08-03T09:35:27;4.82;;;1.60;;
37943;SDS011;23767;42.024;23.086;2022-08-03T09:38:13;4.30;;;1.58;;
37943;SDS011;23767;42.024;23.086;2022-08-03T09:40:40;6.50;;;1.50;;
37943;SDS011;23767;42.024;23.086;2022-08-03T09:43:06;3.55;;;1.52;;
37943;SDS011;23767;42.024;23.086;2022-08-03T09:45:36;7.53;;;2.05;;
37943;SDS011;23767;42.024;23.086;2022-08-03T09:50:51;5.07;;;1.70;;
37943;SDS011;23767;42.024;23.086;2022-08-03T09:53:18;4.25;;;1.40;;
37943;SDS011;23767;42.024;23.086;2022-08-03T09:55:54;4.07;;;1.80;;
37943;SDS011;23767;42.024;23.086;2022-08-03T09:58:21;4.95;;;1.70;;
37943;SDS011;23767;42.024;23.086;2022-08-03T10:00:54;3.70;;;1.50;;
37943;SDS011;23767;42.024;23.086;2022-08-03T10:03:21;3.92;;;1.50;;
37943;SDS011;23767;42.024;23.086;2022-08-03T10:05:47;4.03;;;1.30;;
37943;SDS011;23767;42.024;23.086;2022-08-03T10:08:13;3.50;;;1.40;;
37943;SDS011;23767;42.024;23.086;2022-08-03T10:10:41;3.15;;;1.40;;
37943;SDS011;23767;42.024;23.086;2022-08-03T10:13:08;2.85;;;1.40;;
37943;SDS011;23767;42.024;23.086;2022-08-03T10:15:35;7.10;;;1.80;;
37943;SDS011;23767;42.024;23.086;2022-08-03T10:18:01;6.10;;;1.77;;
37943;SDS011;23767;42.024;23.086;2022-08-03T10:20:27;3.60;;;1.50;;
37943;SDS011;23767;42.024;23.086;2022-08-03T10:22:53;3.53;;;1.48;;
37943;SDS011;23767;42.024;23.086;2022-08-03T10:25:20;3.80;;;1.60;;
37943;SDS011;23767;42.024;23.086;2022-08-03T10:27:46;3.13;;;1.50;;
37943;SDS011;23767;42.024;23.086;2022-08-03T10:30:15;4.72;;;1.52;;
37943;SDS011;23767;42.024;23.086;2022-08-03T10:32:42;4.88;;;1.70;;
37943;SDS011;23767;42.024;23.086;2022-08-03T10:35:14;3.92;;;1.60;;
37943;SDS011;23767;42.024;23.086;2022-08-03T10:37:44;4.90;;;1.75;;
37943;SDS011;23767;42.024;23.086;2022-08-03T10:40:12;4.47;;;1.80;;
37943;SDS011;23767;42.024;23.086;2022-08-03T10:42:44;3.40;;;1.70;;
37943;SDS011;23767;42.024;23.086;2022-08-03T10:45:22;5.72;;;1.90;;
37943;SDS011;23767;42.024;23.086;2022-08-03T10:47:49;3.65;;;1.90;;
37943;SDS011;23767;42.024;23.086;2022-08-03T10:50:16;5.47;;;1.90;;
37943;SDS011;23767;42.024;23.086;2022-08-03T10:52:55;3.63;;;1.73;;
37943;SDS011;23767;42.024;23.086;2022-08-03T10:55:38;5.65;;;1.80;;
37943;SDS011;23767;42.024;23.086;2022-08-03T11:01:01;5.20;;;1.63;;
37943;SDS011;23767;42.024;23.086;2022-08-03T11:03:28;5.88;;;2.05;;
37943;SDS011;23767;42.024;23.086;2022-08-03T11:06:13;4.00;;;1.80;;
37943;SDS011;23767;42.024;23.086;2022-08-03T11:08:40;8.55;;;2.55;;
37943;SDS011;23767;42.024;23.086;2022-08-03T11:16:23;6.55;;;2.10;;
37943;SDS011;23767;42.024;23.086;2022-08-03T11:18:57;6.53;;;2.30;;
37943;SDS011;23767;42.024;23.086;2022-08-03T11:24:09;10.13;;;2.10;;
37943;SDS011;23767;42.024;23.086;2022-08-03T11:26:35;7.15;;;2.00;;
37943;SDS011;23767;42.024;23.086;2022-08-03T11:31:45;4.15;;;2.00;;
37943;SDS011;23767;42.024;23.086;2022-08-03T11:34:12;4.70;;;1.90;;
37943;SDS011;23767;42.024;23.086;2022-08-03T11:44:51;4.95;;;1.70;;
37943;SDS011;23767;42.024;23.086;2022-08-03T11:47:19;2.80;;;1.52;;
37943;SDS011;23767;42.024;23.086;2022-08-03T11:49:45;3.38;;;1.60;;
37943;SDS011;23767;42.024;23.086;2022-08-03T11:52:11;3.95;;;1.60;;
37943;SDS011;23767;42.024;23.086;2022-08-03T11:54:38;5.63;;;1.85;;
37943;SDS011;23767;42.024;23.086;2022-08-03T11:57:04;5.18;;;1.50;;
37943;SDS011;23767;42.024;23.086;2022-08-03T11:59:31;3.33;;;1.67;;
37943;SDS011;23767;42.024;23.086;2022-08-03T12:02:10;3.35;;;1.38;;
37943;SDS011;23767;42.024;23.086;2022-08-03T12:04:53;3.22;;;1.50;;
37943;SDS011;23767;42.024;23.086;2022-08-03T12:07:22;2.95;;;1.40;;
37943;SDS011;23767;42.024;23.086;2022-08-03T12:12:33;3.85;;;1.40;;
37943;SDS011;23767;42.024;23.086;2022-08-03T12:15:00;3.00;;;1.63;;
37943;SDS011;23767;42.024;23.086;2022-08-03T12:19:59;5.10;;;1.88;;
37943;SDS011;23767;42.024;23.086;2022-08-03T12:22:38;3.45;;;1.63;;
37943;SDS011;23767;42.024;23.086;2022-08-03T12:25:05;2.65;;;1.50;;
37943;SDS011;23767;42.024;23.086;2022-08-03T12:27:32;4.22;;;1.63;;
37943;SDS011;23767;42.024;23.086;2022-08-03T12:29:58;3.63;;;1.67;;
37943;SDS011;23767;42.024;23.086;2022-08-03T12:32:28;3.70;;;1.58;;
37943;SDS011;23767;42.024;23.086;2022-08-03T12:34:55;4.25;;;1.70;;
37943;SDS011;23767;42.024;23.086;2022-08-03T12:37:25;4.38;;;1.65;;
37943;SDS011;23767;42.024;23.086;2022-08-03T12:39:52;3.35;;;1.60;;
37943;SDS011;23767;42.024;23.086;2022-08-03T12:42:18;3.53;;;1.70;;
37943;SDS011;23767;42.024;23.086;2022-08-03T12:44:45;3.75;;;1.85;;
37943;SDS011;23767;42.024;23.086;2022-08-03T12:47:13;4.47;;;1.85;;
37943;SDS011;23767;42.024;23.086;2022-08-03T12:49:43;5.28;;;1.80;;
37943;SDS011;23767;42.024;23.086;2022-08-03T12:52:10;3.50;;;1.80;;
37943;SDS011;23767;42.024;23.086;2022-08-03T12:54:36;5.55;;;1.90;;
37943;SDS011;23767;42.024;23.086;2022-08-03T12:57:06;3.78;;;1.90;;
37943;SDS011;23767;42.024;23.086;2022-08-03T12:59:33;4.32;;;1.70;;
37943;SDS011;23767;42.024;23.086;2022-08-03T13:02:13;3.65;;;2.03;;
37943;SDS011;23767;42.024;23.086;2022-08-03T13:04:40;4.78;;;1.80;;
37943;SDS011;23767;42.024;23.086;2022-08-03T13:07:07;4.18;;;1.83;;
37943;SDS011;23767;42.024;23.086;2022-08-03T13:09:43;5.55;;;2.00;;
37943;SDS011;23767;42.024;23.086;2022-08-03T13:14:35;3.22;;;1.65;;
37943;SDS011;23767;42.024;23.086;2022-08-03T13:17:02;5.45;;;1.73;;
37943;SDS011;23767;42.024;23.086;2022-08-03T13:19:30;6.28;;;2.00;;
37943;SDS011;23767;42.024;23.086;2022-08-03T13:21:56;6.18;;;1.73;;
37943;SDS011;23767;42.024;23.086;2022-08-03T13:24:22;4.55;;;1.58;;
37943;SDS011;23767;42.024;23.086;2022-08-03T13:26:49;6.47;;;1.83;;
37943;SDS011;23767;42.024;23.086;2022-08-03T13:29:15;4.72;;;1.60;;
37943;SDS011;23767;42.024;23.086;2022-08-03T13:31:42;6.68;;;1.70;;
37943;SDS011;23767;42.024;23.086;2022-08-03T13:34:08;4.00;;;1.55;;
37943;SDS011;23767;42.024;23.086;2022-08-03T13:36:34;2.75;;;1.27;;
37943;SDS011;23767;42.024;23.086;2022-08-03T13:39:00;3.05;;;1.20;;
37943;SDS011;23767;42.024;23.086;2022-08-03T13:41:26;3.05;;;1.30;;
37943;SDS011;23767;42.024;23.086;2022-08-03T13:43:52;2.70;;;1.25;;
37943;SDS011;23767;42.024;23.086;2022-08-03T13:46:20;2.15;;;1.10;;
37943;SDS011;23767;42.024;23.086;2022-08-03T13:48:46;4.38;;;1.30;;
37943;SDS011;23767;42.024;23.086;2022-08-03T13:51:12;3.28;;;1.40;;
37943;SDS011;23767;42.024;23.086;2022-08-03T13:53:38;4.47;;;1.42;;
37943;SDS011;23767;42.024;23.086;2022-08-03T13:56:04;2.58;;;1.30;;
37943;SDS011;23767;42.024;23.086;2022-08-03T13:58:30;2.92;;;1.35;;
37943;SDS011;23767;42.024;23.086;2022-08-03T14:00:56;3.33;;;1.40;;
37943;SDS011;23767;42.024;23.086;2022-08-03T14:03:22;4.15;;;1.08;;
37943;SDS011;23767;42.024;23.086;2022-08-03T14:05:49;2.90;;;1.10;;
37943;SDS011;23767;42.024;23.086;2022-08-03T14:08:15;2.85;;;1.13;;
37943;SDS011;23767;42.024;23.086;2022-08-03T14:10:42;2.15;;;1.20;;
37943;SDS011;23767;42.024;23.086;2022-08-03T14:13:09;3.08;;;1.15;;
37943;SDS011;23767;42.024;23.086;2022-08-03T14:15:35;2.25;;;1.10;;
37943;SDS011;23767;42.024;23.086;2022-08-03T14:18:01;4.00;;;1.20;;
37943;SDS011;23767;42.024;23.086;2022-08-03T14:20:28;3.53;;;1.20;;
37943;SDS011;23767;42.024;23.086;2022-08-03T14:22:54;1.80;;;1.00;;
37943;SDS011;23767;42.024;23.086;2022-08-03T14:25:20;2.28;;;1.02;;
37943;SDS011;23767;42.024;23.086;2022-08-03T14:27:46;2.40;;;1.20;;
37943;SDS011;23767;42.024;23.086;2022-08-03T14:30:12;2.33;;;1.10;;
37943;SDS011;23767;42.024;23.086;2022-08-03T14:32:39;1.95;;;1.10;;
37943;SDS011;23767;42.024;23.086;2022-08-03T14:35:05;2.63;;;1.00;;
37943;SDS011;23767;42.024;23.086;2022-08-03T14:37:31;2.25;;;1.10;;
37943;SDS011;23767;42.024;23.086;2022-08-03T14:39:58;1.98;;;1.08;;
37943;SDS011;23767;42.024;23.086;2022-08-03T14:42:24;2.20;;;1.10;;
37943;SDS011;23767;42.024;23.086;2022-08-03T14:44:50;3.53;;;1.10;;
37943;SDS011;23767;42.024;23.086;2022-08-03T14:47:16;2.33;;;1.10;;
37943;SDS011;23767;42.024;23.086;2022-08-03T14:49:42;5.07;;;1.35;;
37943;SDS011;23767;42.024;23.086;2022-08-03T14:52:08;3.30;;;1.05;;
37943;SDS011;23767;42.024;23.086;2022-08-03T14:54:35;1.92;;;1.00;;
37943;SDS011;23767;42.024;23.086;2022-08-03T14:57:01;2.63;;;1.40;;
37943;SDS011;23767;42.024;23.086;2022-08-03T14:59:27;1.80;;;1.10;;
37943;SDS011;23767;42.024;23.086;2022-08-03T15:01:53;2.30;;;1.15;;
37943;SDS011;23767;42.024;23.086;2022-08-03T15:04:19;2.47;;;1.08;;
37943;SDS011;23767;42.024;23.086;2022-08-03T15:06:45;2.03;;;1.05;;
37943;SDS011;23767;42.024;23.086;2022-08-03T15:09:12;1.80;;;1.10;;
37943;SDS011;23767;42.024;23.086;2022-08-03T15:11:38;1.90;;;1.10;;
37943;SDS011;23767;42.024;23.086;2022-08-03T15:14:04;2.13;;;1.10;;
37943;SDS011;23767;42.024;23.086;2022-08-03T15:16:30;2.38;;;1.00;;
37943;SDS011;23767;42.024;23.086;2022-08-03T15:18:56;1.98;;;1.02;;
37943;SDS011;23767;42.024;23.086;2022-08-03T15:21:22;2.10;;;1.20;;
37943;SDS011;23767;42.024;23.086;2022-08-03T15:23:49;4.88;;;1.52;;
37943;SDS011;23767;42.024;23.086;2022-08-03T15:26:15;2.70;;;1.20;;